Time;durP1;ratioP1;P1;durP2;ratioP2;P2;SDS_P1;SDS_P2;PMS_P1;PMS_P2;Temp;Humidity;BMP_temperature;BMP_pressure;BME280_temperature;BME280_humidity;BME280_pressure;Samples;Min_cycle;Max_cycle;Signal;HPM_P1;HPM_P2
2021/01/10 00:00:38;;;;;;;24.85;6.68;;;7.10;76.60;;;;;;5108289;28;20088;-60
2021/01/10 00:03:04;;;;;;;60.53;7.43;;;7.10;76.70;;;;;;5101844;28;20036;-60
2021/01/10 00:05:37;;;;;;;27.25;7.05;;;7.10;76.70;;;;;;5108302;28;20166;-60
2021/01/10 00:08:03;;;;;;;24.65;4.78;;;7.10;76.80;;;;;;5103276;28;20020;-60
2021/01/10 00:10:29;;;;;;;81.50;7.65;;;7.00;76.80;;;;;;5106851;28;20032;-60
2021/01/10 00:12:59;;;;;;;22.30;3.13;;;6.90;76.90;;;;;;5104986;28;20027;-60
2021/01/10 00:15:25;;;;;;;74.72;6.13;;;6.90;77.10;;;;;;5106039;28;20553;-60
2021/01/10 00:17:51;;;;;;;92.43;6.45;;;6.90;77.30;;;;;;5105535;28;20521;-60
2021/01/10 00:20:18;;;;;;;39.05;4.95;;;6.80;77.30;;;;;;5104077;28;20024;-60
2021/01/10 00:22:45;;;;;;;46.72;4.90;;;6.80;77.40;;;;;;5108127;28;20028;-61
2021/01/10 00:25:12;;;;;;;39.83;6.28;;;6.80;77.40;;;;;;5101505;28;20043;-60
2021/01/10 00:27:40;;;;;;;34.92;5.20;;;6.80;77.50;;;;;;5107715;28;20180;-60
2021/01/10 00:30:12;;;;;;;38.38;4.95;;;6.80;77.40;;;;;;5103157;28;20050;-60
2021/01/10 00:32:38;;;;;;;35.03;5.20;;;6.80;77.30;;;;;;5107080;28;20379;-60
2021/01/10 00:35:07;;;;;;;11.52;3.60;;;6.80;77.30;;;;;;5104357;28;20028;-60
2021/01/10 00:37:33;;;;;;;50.15;5.03;;;6.80;77.40;;;;;;5092546;28;20109;-60
2021/01/10 00:39:59;;;;;;;92.32;6.05;;;6.80;77.40;;;;;;5093133;28;20459;-60
2021/01/10 00:42:24;;;;;;;45.70;4.88;;;6.80;77.40;;;;;;5092895;28;20062;-60
2021/01/10 00:44:50;;;;;;;45.22;5.00;;;6.80;77.30;;;;;;5092255;28;20036;-60
2021/01/10 00:47:19;;;;;;;32.38;4.63;;;6.80;77.10;;;;;;5092820;28;20483;-60
2021/01/10 00:49:46;;;;;;;65.57;5.80;;;6.80;77.00;;;;;;5091767;28;20069;-60
2021/01/10 00:52:13;;;;;;;27.88;4.00;;;6.80;76.80;;;;;;5090786;28;20075;-60
2021/01/10 00:54:39;;;;;;;33.60;4.60;;;6.80;76.70;;;;;;5091724;28;20024;-60
2021/01/10 00:57:07;;;;;;;32.67;4.10;;;6.80;76.50;;;;;;5091376;28;20024;-60
2021/01/10 00:59:33;;;;;;;65.40;5.07;;;6.80;76.40;;;;;;5109579;28;20027;-60
2021/01/10 01:02:01;;;;;;;44.70;4.57;;;6.80;76.10;;;;;;5098983;28;20118;-60
2021/01/10 01:04:27;;;;;;;79.88;6.75;;;6.90;75.80;;;;;;5091227;28;20131;-60
2021/01/10 01:06:52;;;;;;;5.72;2.88;;;6.90;75.60;;;;;;5092190;28;20031;-60
2021/01/10 01:09:19;;;;;;;36.55;4.30;;;6.80;75.70;;;;;;5091254;28;20028;-60
2021/01/10 01:11:44;;;;;;;41.47;4.63;;;6.80;75.60;;;;;;5092779;28;20028;-60
2021/01/10 01:14:11;;;;;;;32.72;4.38;;;6.70;75.70;;;;;;5092162;28;20055;-60
2021/01/10 01:16:39;;;;;;;37.25;4.85;;;6.70;75.80;;;;;;5092808;28;20020;-60
2021/01/10 01:19:09;;;;;;;39.08;4.65;;;6.70;75.70;;;;;;5092559;28;20480;-60
2021/01/10 01:21:35;;;;;;;23.83;4.63;;;6.70;75.80;;;;;;5091910;28;20146;-60
2021/01/10 01:24:01;;;;;;;51.55;4.22;;;6.60;75.50;;;;;;5092494;28;20500;-61
2021/01/10 01:26:27;;;;;;;32.92;3.95;;;6.70;75.50;;;;;;5092628;28;20084;-60
2021/01/10 01:28:53;;;;;;;30.30;4.00;;;6.60;75.30;;;;;;5091636;28;20179;-60
2021/01/10 01:31:21;;;;;;;39.70;3.72;;;6.70;75.10;;;;;;5092488;28;20035;-60
2021/01/10 01:33:48;;;;;;;49.67;4.53;;;6.70;75.00;;;;;;5092289;28;20036;-60
2021/01/10 01:36:19;;;;;;;36.60;4.10;;;6.60;75.00;;;;;;5092421;28;20035;-60
2021/01/10 01:38:45;;;;;;;18.42;3.58;;;6.60;75.00;;;;;;5092285;28;20115;-60
2021/01/10 01:41:12;;;;;;;15.07;3.83;;;6.60;75.00;;;;;;5091737;28;20024;-60
2021/01/10 01:43:38;;;;;;;8.27;3.40;;;6.50;74.80;;;;;;5092599;28;20044;-60
2021/01/10 01:46:06;;;;;;;8.40;3.35;;;6.50;74.90;;;;;;5110210;28;20024;-60
2021/01/10 01:48:32;;;;;;;14.02;3.63;;;6.50;74.80;;;;;;5095674;28;20035;-60
2021/01/10 01:50:59;;;;;;;12.38;3.05;;;6.50;74.70;;;;;;5096079;28;20020;-60
2021/01/10 01:53:26;;;;;;;12.75;3.47;;;6.50;74.50;;;;;;5096214;28;20028;-60
2021/01/10 01:55:57;;;;;;;11.50;3.38;;;6.40;74.40;;;;;;5095332;28;20475;-60
2021/01/10 01:58:24;;;;;;;9.63;3.53;;;6.40;74.40;;;;;;5096146;28;20035;-60
2021/01/10 02:00:51;;;;;;;12.85;4.05;;;6.40;74.30;;;;;;5096033;28;20556;-60
2021/01/10 02:03:42;;;;;;;5.15;3.30;;;6.40;74.20;;;;;;5095395;28;20028;-60
2021/01/10 02:06:18;;;;;;;10.00;3.38;;;6.40;74.00;;;;;;5096175;28;20047;-60
2021/01/10 02:08:44;;;;;;;4.65;3.33;;;6.40;73.90;;;;;;5096151;28;20035;-60
2021/01/10 02:11:11;;;;;;;8.48;3.78;;;6.30;74.00;;;;;;5095201;28;20388;-60
2021/01/10 02:13:39;;;;;;;6.53;4.22;;;6.30;73.80;;;;;;5095746;28;20032;-60
2021/01/10 02:16:06;;;;;;;5.18;4.05;;;6.30;73.60;;;;;;5094885;28;20032;-60
2021/01/10 02:18:35;;;;;;;5.20;3.78;;;6.30;73.50;;;;;;5095737;28;20035;-60
2021/01/10 02:21:04;;;;;;;7.80;4.05;;;6.30;73.40;;;;;;5095872;28;20048;-60
2021/01/10 02:23:31;;;;;;;7.43;4.30;;;6.20;73.20;;;;;;5095119;28;20384;-60
2021/01/10 02:25:58;;;;;;;5.95;4.25;;;6.20;73.00;;;;;;5095816;28;20043;-60
2021/01/10 02:28:27;;;;;;;7.70;3.95;;;6.20;73.00;;;;;;5095201;28;20747;-60
2021/01/10 02:30:54;;;;;;;7.50;3.53;;;6.20;73.00;;;;;;5094772;28;20107;-60
2021/01/10 02:33:44;;;;;;;5.60;3.55;;;6.20;73.20;;;;;;5095226;28;20028;-60
2021/01/10 02:36:31;;;;;;;6.20;3.80;;;6.10;73.30;;;;;;5095442;28;20477;-60
2021/01/10 02:39:05;;;;;;;6.88;3.50;;;6.10;73.40;;;;;;5094585;28;20031;-60
2021/01/10 02:41:43;;;;;;;6.47;4.18;;;6.10;73.40;;;;;;5095294;28;20032;-60
2021/01/10 02:44:26;;;;;;;5.75;3.83;;;6.10;73.50;;;;;;5094485;28;20036;-60
2021/01/10 02:46:54;;;;;;;9.52;3.78;;;6.00;73.50;;;;;;5095244;28;20074;-60
2021/01/10 02:49:20;;;;;;;5.55;3.45;;;6.10;73.50;;;;;;5095030;28;20060;-60
2021/01/10 02:51:47;;;;;;;6.50;4.13;;;6.10;74.20;;;;;;5094334;28;20028;-60
2021/01/10 02:54:14;;;;;;;6.40;4.22;;;6.00;73.70;;;;;;5093628;28;20063;-60
2021/01/10 02:56:45;;;;;;;5.95;3.80;;;6.10;73.80;;;;;;5094047;28;20031;-60
2021/01/10 02:59:15;;;;;;;6.60;3.42;;;6.00;73.70;;;;;;5094161;28;20472;-60
2021/01/10 03:01:42;;;;;;;7.25;3.88;;;6.00;73.80;;;;;;5100911;28;20510;-60
2021/01/10 03:04:08;;;;;;;7.63;4.28;;;6.10;73.90;;;;;;5094337;28;20044;-60
2021/01/10 03:06:34;;;;;;;6.63;3.83;;;6.10;73.90;;;;;;5094315;28;20020;-60
2021/01/10 03:08:59;;;;;;;6.22;3.55;;;6.00;73.80;;;;;;5094961;28;20035;-60
2021/01/10 03:11:25;;;;;;;5.88;3.67;;;6.00;73.80;;;;;;5094314;28;20023;-60
2021/01/10 03:13:51;;;;;;;7.55;3.10;;;6.10;73.80;;;;;;5093976;28;20036;-60
2021/01/10 03:16:17;;;;;;;7.65;3.70;;;6.10;73.80;;;;;;5094671;28;20149;-60
2021/01/10 03:18:43;;;;;;;8.57;3.90;;;6.00;73.70;;;;;;5094708;28;20081;-60
2021/01/10 03:21:08;;;;;;;5.65;3.92;;;6.00;73.70;;;;;;5093780;28;20111;-60
2021/01/10 03:23:34;;;;;;;7.22;3.90;;;6.00;73.70;;;;;;5094632;28;20107;-60
2021/01/10 03:25:59;;;;;;;6.20;3.85;;;6.00;73.70;;;;;;5094283;28;20031;-60
2021/01/10 03:28:25;;;;;;;6.43;4.05;;;6.00;73.70;;;;;;5093185;28;20071;-60
2021/01/10 03:30:50;;;;;;;5.75;4.07;;;6.10;73.70;;;;;;5094151;28;20103;-60
2021/01/10 03:33:16;;;;;;;8.57;5.55;;;6.10;73.60;;;;;;5094007;28;20383;-60
2021/01/10 03:35:42;;;;;;;6.22;3.85;;;6.00;73.40;;;;;;5093690;28;20012;-60
2021/01/10 03:38:08;;;;;;;5.20;3.63;;;6.10;73.60;;;;;;5094352;28;20027;-60
2021/01/10 03:40:34;;;;;;;8.52;3.67;;;6.10;73.60;;;;;;5105280;28;20019;-60
2021/01/10 03:43:00;;;;;;;7.53;3.78;;;6.00;73.60;;;;;;5113139;28;20031;-60
2021/01/10 03:45:25;;;;;;;7.18;3.72;;;6.00;73.70;;;;;;5108489;28;20423;-60
2021/01/10 03:47:51;;;;;;;5.57;3.88;;;6.00;73.70;;;;;;5095500;28;20059;-60
2021/01/10 03:50:17;;;;;;;6.88;3.42;;;6.00;73.60;;;;;;5105714;28;20032;-60
2021/01/10 03:52:43;;;;;;;5.72;3.83;;;5.90;73.60;;;;;;5093749;28;20024;-60
2021/01/10 03:55:09;;;;;;;8.45;4.15;;;6.00;73.60;;;;;;5093401;28;20032;-60
2021/01/10 03:57:39;;;;;;;7.00;3.53;;;6.00;73.60;;;;;;5106130;28;20039;-60
2021/01/10 04:00:11;;;;;;;5.30;3.10;;;5.90;73.50;;;;;;5094782;28;20402;-60
2021/01/10 04:02:37;;;;;;;4.93;3.10;;;5.90;73.50;;;;;;5093034;28;20111;-60
2021/01/10 04:05:04;;;;;;;4.35;3.17;;;5.90;73.50;;;;;;5093466;28;20582;-60
2021/01/10 04:07:29;;;;;;;8.93;4.10;;;5.90;73.40;;;;;;5093316;28;20028;-61
2021/01/10 04:09:55;;;;;;;9.73;3.42;;;5.90;73.50;;;;;;5111681;28;20039;-60
2021/01/10 04:12:21;;;;;;;9.45;4.20;;;5.90;73.50;;;;;;5110838;28;20028;-60
2021/01/10 04:14:46;;;;;;;5.68;3.42;;;5.90;73.40;;;;;;5113257;28;20372;-60
2021/01/10 04:17:12;;;;;;;6.32;3.05;;;5.90;73.50;;;;;;5093312;28;20114;-60
2021/01/10 04:19:38;;;;;;;4.60;2.90;;;5.90;73.40;;;;;;5093712;28;20052;-60
2021/01/10 04:22:03;;;;;;;5.88;3.22;;;5.80;73.40;;;;;;5093476;28;20498;-60
2021/01/10 04:24:29;;;;;;;6.75;2.75;;;5.80;73.40;;;;;;5092711;28;20040;-60
2021/01/10 04:26:54;;;;;;;6.15;2.97;;;5.80;73.40;;;;;;5093347;28;20506;-60
2021/01/10 04:29:20;;;;;;;5.22;2.70;;;5.80;73.50;;;;;;5093115;28;20079;-60
2021/01/10 04:31:47;;;;;;;5.55;3.00;;;5.80;73.50;;;;;;5092504;28;20032;-60
2021/01/10 04:34:13;;;;;;;11.88;2.80;;;5.80;73.40;;;;;;5093069;28;20566;-60
2021/01/10 04:36:39;;;;;;;4.45;2.55;;;5.80;73.40;;;;;;5093126;28;20063;-60
2021/01/10 04:39:05;;;;;;;6.80;3.05;;;5.80;73.40;;;;;;5092755;28;20032;-60
2021/01/10 04:41:32;;;;;;;4.45;2.58;;;5.80;73.40;;;;;;5093187;28;20036;-60
2021/01/10 04:43:58;;;;;;;5.00;2.13;;;5.80;73.40;;;;;;5092148;28;20036;-60
2021/01/10 04:46:26;;;;;;;5.88;2.55;;;5.70;73.40;;;;;;5092932;28;20024;-60
2021/01/10 04:48:53;;;;;;;6.97;2.35;;;5.70;73.40;;;;;;5106213;28;20032;-59
2021/01/10 04:51:21;;;;;;;6.68;2.90;;;5.70;73.50;;;;;;5093135;28;20028;-60
2021/01/10 04:53:49;;;;;;;8.63;2.40;;;5.70;73.50;;;;;;5093007;28;20476;-60
2021/01/10 04:56:18;;;;;;;5.25;2.22;;;5.60;73.50;;;;;;5092750;28;20373;-60
2021/01/10 04:58:51;;;;;;;6.72;2.50;;;5.60;73.60;;;;;;5092180;28;20032;-59
2021/01/10 05:01:22;;;;;;;7.55;2.60;;;5.60;73.70;;;;;;5091121;28;20028;-59
2021/01/10 05:03:47;;;;;;;4.47;2.30;;;5.60;73.70;;;;;;5103054;28;20124;-60
2021/01/10 05:06:15;;;;;;;3.95;2.35;;;5.50;73.80;;;;;;5103698;28;20065;-59
2021/01/10 05:08:41;;;;;;;2.50;1.83;;;5.50;73.80;;;;;;5101478;28;20036;-60
2021/01/10 05:11:07;;;;;;;4.53;1.58;;;5.50;73.90;;;;;;5105777;28;20034;-60
2021/01/10 05:13:33;;;;;;;4.85;1.92;;;5.50;74.10;;;;;;5099034;28;20036;-60
2021/01/10 05:15:59;;;;;;;4.43;1.60;;;5.40;74.20;;;;;;5105464;28;20069;-59
2021/01/10 05:18:25;;;;;;;7.22;2.85;;;5.40;74.40;;;;;;5101770;28;20028;-60
2021/01/10 05:20:54;;;;;;;6.72;3.80;;;5.30;74.60;;;;;;5105792;28;20502;-60
2021/01/10 05:23:27;;;;;;;7.13;1.83;;;5.30;74.80;;;;;;5107168;28;20109;-59
2021/01/10 05:26:06;;;;;;;3.72;1.20;;;5.20;74.90;;;;;;5106560;28;20032;-60
2021/01/10 05:28:33;;;;;;;2.92;1.73;;;5.20;75.00;;;;;;5106306;28;20047;-60
2021/01/10 05:31:00;;;;;;;5.85;1.58;;;5.10;75.20;;;;;;5106882;28;20039;-59
2021/01/10 05:33:26;;;;;;;3.83;2.20;;;5.20;75.90;;;;;;5107261;28;20110;-60
2021/01/10 05:35:57;;;;;;;9.77;2.03;;;5.10;75.30;;;;;;5104963;28;20070;-60
2021/01/10 05:38:33;;;;;;;3.92;1.95;;;5.10;75.40;;;;;;5109261;28;20031;-60
2021/01/10 05:41:10;;;;;;;14.50;1.90;;;5.10;75.50;;;;;;5104216;28;20471;-60
2021/01/10 05:43:36;;;;;;;11.35;2.35;;;5.10;75.60;;;;;;5108131;28;20043;-60
2021/01/10 05:46:15;;;;;;;4.07;1.73;;;5.00;75.60;;;;;;5104407;28;20067;-60
2021/01/10 05:48:45;;;;;;;8.70;0.95;;;5.10;76.40;;;;;;5111853;28;20024;-60
2021/01/10 05:51:12;;;;;;;1.25;1.15;;;5.00;75.90;;;;;;5098152;28;20039;-60
2021/01/10 05:53:41;;;;;;;3.63;2.10;;;5.00;76.10;;;;;;5096438;28;20089;-60
2021/01/10 05:56:07;;;;;;;1.42;1.20;;;5.00;76.30;;;;;;5095460;28;20028;-60
2021/01/10 05:58:33;;;;;;;2.67;1.23;;;4.90;76.50;;;;;;5105029;28;20055;-60
2021/01/10 06:01:08;;;;;;;0.40;0.40;;;4.90;76.60;;;;;;5101496;28;20429;-60
2021/01/10 06:03:35;;;;;;;4.32;0.90;;;4.90;76.90;;;;;;5095962;28;20563;-60
2021/01/10 06:06:04;;;;;;;4.10;1.52;;;4.80;77.00;;;;;;5096117;28;20047;-60
2021/01/10 06:08:40;;;;;;;4.13;1.65;;;4.80;77.10;;;;;;5095421;28;20032;-60
2021/01/10 06:11:20;;;;;;;3.75;1.30;;;4.80;77.20;;;;;;5096081;28;20035;-60
2021/01/10 06:13:57;;;;;;;5.50;1.33;;;4.80;77.40;;;;;;5095800;28;20030;-60
2021/01/10 06:16:26;;;;;;;1.73;1.20;;;4.70;77.30;;;;;;5095173;28;20028;-60
2021/01/10 06:19:16;;;;;;;2.92;1.65;;;4.70;77.40;;;;;;5095931;28;20034;-59
2021/01/10 06:21:47;;;;;;;3.67;1.40;;;4.70;77.50;;;;;;5095686;28;20031;-60
2021/01/10 06:24:17;;;;;;;1.58;1.35;;;4.60;77.50;;;;;;5094912;28;20036;-60
2021/01/10 06:26:50;;;;;;;2.33;1.23;;;4.60;77.60;;;;;;5095657;28;20054;-60
2021/01/10 06:29:19;;;;;;;2.75;0.90;;;4.60;77.80;;;;;;5094788;28;20537;-61
2021/01/10 06:31:49;;;;;;;5.70;1.48;;;4.60;77.80;;;;;;5095356;28;20028;-60
2021/01/10 06:34:18;;;;;;;8.55;2.33;;;4.60;77.80;;;;;;5095562;28;20028;-60
2021/01/10 06:36:46;;;;;;;4.93;1.92;;;4.60;77.90;;;;;;5094552;28;20024;-60
2021/01/10 06:39:18;;;;;;;4.85;1.58;;;4.60;77.90;;;;;;5095641;28;20372;-59
2021/01/10 06:41:52;;;;;;;4.95;2.00;;;4.60;78.00;;;;;;5095419;28;20422;-60
2021/01/10 06:44:20;;;;;;;5.50;1.38;;;4.60;78.00;;;;;;5094641;28;20054;-60
2021/01/10 06:46:53;;;;;;;3.65;1.77;;;4.50;77.90;;;;;;5095426;28;20039;-60
2021/01/10 06:49:19;;;;;;;2.15;1.60;;;4.50;78.00;;;;;;5095015;28;20035;-59
2021/01/10 06:51:46;;;;;;;4.15;1.45;;;4.50;78.00;;;;;;5094634;28;20040;-60
2021/01/10 06:54:12;;;;;;;4.85;2.17;;;4.50;78.00;;;;;;5095032;28;20062;-60
2021/01/10 06:56:39;;;;;;;6.22;1.35;;;4.50;78.10;;;;;;5095188;28;20028;-59
2021/01/10 06:59:11;;;;;;;0.63;0.63;;;4.50;78.10;;;;;;5094362;28;20030;-60
2021/01/10 07:01:48;;;;;;;0.93;0.88;;;4.50;78.10;;;;;;5095264;28;20130;-60
2021/01/10 07:04:33;;;;;;;2.22;1.27;;;4.50;78.20;;;;;;5094873;28;20039;-59
2021/01/10 07:06:58;;;;;;;5.55;1.23;;;4.50;78.20;;;;;;5094845;28;20130;-60
2021/01/10 07:09:24;;;;;;;0.90;0.90;;;4.40;78.10;;;;;;5094853;28;20063;-59
2021/01/10 07:11:51;;;;;;;9.77;1.98;;;4.40;78.20;;;;;;5108420;28;20027;-60
2021/01/10 07:14:17;;;;;;;11.93;2.22;;;4.40;78.30;;;;;;5094603;28;20036;-60
2021/01/10 07:16:46;;;;;;;1.80;1.10;;;4.40;78.30;;;;;;5094725;28;20031;-59
2021/01/10 07:19:15;;;;;;;3.25;1.15;;;4.40;78.40;;;;;;5094057;28;20371;-60
2021/01/10 07:21:48;;;;;;;0.60;0.60;;;4.40;78.40;;;;;;5094554;28;20119;-60
2021/01/10 07:24:19;;;;;;;5.80;1.80;;;4.30;78.40;;;;;;5094443;28;20043;-60
2021/01/10 07:26:54;;;;;;;1.42;1.33;;;4.30;78.30;;;;;;5093624;28;20074;-60
2021/01/10 07:29:39;;;;;;;5.03;1.85;;;4.30;78.50;;;;;;5094187;28;20503;-60
2021/01/10 07:32:07;;;;;;;0.65;0.65;;;4.30;78.50;;;;;;5094415;28;20031;-60
2021/01/10 07:34:53;;;;;;;2.33;1.25;;;4.30;78.60;;;;;;5093530;28;20130;-60
2021/01/10 07:37:24;;;;;;;2.00;1.58;;;4.30;78.70;;;;;;5086454;28;20613;-60
2021/01/10 07:39:59;;;;;;;2.78;1.42;;;4.30;78.60;;;;;;5093436;28;20032;-59
2021/01/10 07:42:35;;;;;;;0.88;0.85;;;4.30;78.60;;;;;;5093596;28;20047;-59
2021/01/10 07:45:09;;;;;;;3.22;1.90;;;4.30;78.60;;;;;;5094010;28;20036;-59
2021/01/10 07:47:34;;;;;;;1.98;1.38;;;4.30;78.60;;;;;;5095556;28;20483;-60
2021/01/10 07:50:15;;;;;;;8.80;1.42;;;4.40;78.50;;;;;;5106143;28;20024;-60
2021/01/10 07:52:41;;;;;;;0.60;0.60;;;4.40;78.60;;;;;;5093744;28;20533;-60
2021/01/10 07:55:18;;;;;;;6.95;2.05;;;4.40;78.40;;;;;;5093343;28;20024;-60
2021/01/10 07:57:51;;;;;;;5.53;1.95;;;4.40;78.50;;;;;;5093729;28;20410;-60
2021/01/10 08:00:25;;;;;;;0.95;0.88;;;4.40;78.50;;;;;;5108002;28;20020;-60
2021/01/10 08:02:52;;;;;;;0.77;0.77;;;4.40;78.60;;;;;;5108681;28;20115;-60
2021/01/10 08:05:20;;;;;;;10.95;2.08;;;4.30;78.50;;;;;;5112567;28;20073;-59
2021/01/10 08:08:16;;;;;;;0.60;0.60;;;4.30;78.60;;;;;;5108574;28;20024;-60
2021/01/10 08:10:56;;;;;;;6.35;1.83;;;4.30;78.60;;;;;;5094418;28;20047;-59
2021/01/10 08:13:30;;;;;;;0.93;0.93;;;4.30;78.60;;;;;;5107234;28;20051;-60
2021/01/10 08:16:00;;;;;;;0.77;0.77;;;4.30;78.70;;;;;;5110362;27;20023;-61
2021/01/10 08:18:33;;;;;;;1.60;1.50;;;4.30;78.70;;;;;;5110517;28;20379;-60
2021/01/10 08:21:00;;;;;;;2.13;1.92;;;4.20;78.80;;;;;;5112035;28;20032;-60
2021/01/10 08:23:26;;;;;;;2.47;1.30;;;4.20;78.90;;;;;;5108530;28;20032;-61
2021/01/10 08:26:01;;;;;;;6.20;1.55;;;4.20;79.00;;;;;;5109969;28;20538;-60
2021/01/10 08:28:29;;;;;;;1.73;1.17;;;4.20;79.20;;;;;;5107767;28;20120;-60
2021/01/10 08:31:01;;;;;;;1.85;1.13;;;4.20;79.90;;;;;;5110129;28;20027;-60
2021/01/10 08:33:26;;;;;;;4.50;1.60;;;4.20;79.40;;;;;;5106734;28;20097;-59
2021/01/10 08:35:52;;;;;;;1.10;1.08;;;4.20;79.30;;;;;;5110792;28;20024;-60
2021/01/10 08:38:19;;;;;;;1.40;1.10;;;4.20;79.40;;;;;;5111625;28;20192;-61
2021/01/10 08:40:44;;;;;;;0.63;0.63;;;4.20;79.40;;;;;;5109160;28;20035;-60
2021/01/10 08:43:10;;;;;;;4.32;1.05;;;4.20;79.40;;;;;;5111047;28;20028;-61
2021/01/10 08:45:36;;;;;;;1.10;1.05;;;4.20;79.50;;;;;;5107518;28;20051;-61
2021/01/10 08:48:03;;;;;;;1.15;0.93;;;4.20;79.50;;;;;;5109446;28;20035;-59
2021/01/10 08:50:38;;;;;;;1.27;1.15;;;4.20;79.60;;;;;;5111154;28;20035;-60
2021/01/10 08:53:04;;;;;;;4.78;1.70;;;4.20;79.60;;;;;;5106728;28;20153;-60
2021/01/10 08:55:43;;;;;;;2.67;1.73;;;4.20;79.60;;;;;;5109244;28;20106;-60
2021/01/10 08:58:10;;;;;;;1.90;1.48;;;4.20;79.70;;;;;;5104823;28;20038;-59
2021/01/10 09:00:39;;;;;;;5.25;2.33;;;4.30;79.70;;;;;;5110501;28;20039;-60
2021/01/10 09:03:16;;;;;;;0.93;0.88;;;4.20;80.20;;;;;;5109979;28;20463;-60
2021/01/10 09:05:44;;;;;;;4.00;1.42;;;4.20;79.70;;;;;;5110742;28;20034;-60
2021/01/10 09:08:30;;;;;;;1.27;1.17;;;4.20;79.70;;;;;;5108896;28;20055;-60
2021/01/10 09:11:08;;;;;;;3.47;2.05;;;4.30;79.80;;;;;;5109489;28;20494;-60
2021/01/10 09:13:39;;;;;;;3.63;0.95;;;4.20;79.80;;;;;;5108313;28;20387;-60
2021/01/10 09:16:07;;;;;;;4.68;1.63;;;4.30;79.90;;;;;;5109574;28;20476;-61
2021/01/10 09:18:36;;;;;;;1.58;1.13;;;4.20;79.80;;;;;;5108305;28;20516;-59
2021/01/10 09:21:06;;;;;;;2.60;1.75;;;4.20;79.90;;;;;;5110719;28;20467;-60
2021/01/10 09:23:33;;;;;;;4.93;1.20;;;4.30;80.00;;;;;;5110514;28;20032;-61
2021/01/10 09:25:58;;;;;;;0.82;0.82;;;4.20;80.00;;;;;;5108580;28;20031;-60
2021/01/10 09:28:25;;;;;;;49.55;2.67;;;4.30;80.20;;;;;;5106753;28;20089;-60
2021/01/10 09:30:52;;;;;;;2.35;1.50;;;4.20;80.20;;;;;;5111401;28;20027;-60
2021/01/10 09:33:22;;;;;;;0.90;0.85;;;4.30;80.30;;;;;;5110393;28;20059;-60
2021/01/10 09:35:48;;;;;;;1.35;1.27;;;4.30;80.30;;;;;;5108810;28;20032;-60
2021/01/10 09:38:15;;;;;;;6.43;2.33;;;4.30;80.30;;;;;;5110620;28;20034;-60
2021/01/10 09:41:09;;;;;;;1.73;1.45;;;4.30;80.40;;;;;;5107931;28;20434;-60
2021/01/10 09:43:41;;;;;;;;;;;4.30;80.50;;;;;;5109469;28;20027;-60
2021/01/10 09:46:27;;;;;;;2.65;1.92;;;4.30;80.50;;;;;;5110788;28;19918;-60
2021/01/10 09:48:57;;;;;;;2.92;0.93;;;4.30;80.60;;;;;;5108728;28;20032;-60
2021/01/10 09:51:23;;;;;;;2.42;1.00;;;4.30;80.80;;;;;;5096031;28;20024;-62
2021/01/10 09:53:49;;;;;;;1.50;0.98;;;4.30;80.90;;;;;;5109363;28;20102;-60
2021/01/10 09:56:36;;;;;;;8.68;2.47;;;4.30;81.00;;;;;;5102358;28;20028;-60
2021/01/10 09:59:02;;;;;;;5.43;2.53;;;4.30;81.20;;;;;;5104001;28;20027;-60
2021/01/10 10:01:37;;;;;;;1.80;1.17;;;4.30;81.30;;;;;;5105608;28;20024;-60
2021/01/10 10:04:06;;;;;;;1.83;1.50;;;4.30;81.50;;;;;;5111952;28;20058;-60
2021/01/10 10:06:50;;;;;;;3.63;2.38;;;4.30;81.70;;;;;;5109804;28;20066;-60
2021/01/10 10:09:16;;;;;;;3.50;2.05;;;4.30;81.80;;;;;;5112868;28;20031;-60
2021/01/10 10:11:41;;;;;;;1.85;1.50;;;4.30;81.90;;;;;;5109523;28;20399;-60
2021/01/10 10:14:08;;;;;;;10.15;1.77;;;4.30;81.90;;;;;;5111801;28;20024;-61
2021/01/10 10:16:34;;;;;;;2.05;1.25;;;4.30;82.00;;;;;;5107936;28;20020;-61
2021/01/10 10:18:59;;;;;;;3.90;2.00;;;4.40;82.00;;;;;;5110150;28;20031;-61
2021/01/10 10:21:25;;;;;;;5.78;2.83;;;4.40;82.10;;;;;;5109698;28;20467;-61
2021/01/10 10:23:51;;;;;;;1.05;0.98;;;4.40;82.00;;;;;;5107756;28;20066;-61
2021/01/10 10:26:16;;;;;;;3.80;2.20;;;4.40;82.10;;;;;;5110186;28;20085;-61
2021/01/10 10:28:42;;;;;;;2.90;2.28;;;4.40;82.80;;;;;;5105718;28;20047;-61
2021/01/10 10:31:08;;;;;;;4.63;2.72;;;4.50;82.20;;;;;;5111456;28;20105;-60
2021/01/10 10:33:34;;;;;;;2.45;1.77;;;4.50;82.30;;;;;;5108233;28;20407;-61
2021/01/10 10:36:01;;;;;;;1.27;1.08;;;4.40;82.20;;;;;;5108938;28;20051;-60
2021/01/10 10:38:27;;;;;;;4.03;2.28;;;4.50;82.40;;;;;;5109834;28;20036;-60
2021/01/10 10:40:53;;;;;;;1.17;1.08;;;4.50;82.30;;;;;;5110699;28;20026;-61
2021/01/10 10:43:19;;;;;;;4.05;1.08;;;4.50;82.30;;;;;;5112907;28;20027;-60
2021/01/10 10:45:44;;;;;;;2.72;1.58;;;4.50;82.40;;;;;;5111846;28;20028;-61
2021/01/10 10:48:10;;;;;;;2.58;1.75;;;4.60;82.40;;;;;;5106334;28;20024;-61
2021/01/10 10:50:36;;;;;;;5.95;3.13;;;4.60;82.40;;;;;;5094476;28;20028;-61
2021/01/10 10:53:04;;;;;;;4.68;2.75;;;4.60;82.50;;;;;;5095464;28;20528;-61
2021/01/10 10:55:34;;;;;;;3.83;2.45;;;4.60;82.50;;;;;;5095240;28;20078;-61
2021/01/10 10:57:59;;;;;;;7.10;3.17;;;4.60;82.60;;;;;;5094090;28;20494;-61
2021/01/10 11:00:25;;;;;;;4.07;2.45;;;4.60;82.80;;;;;;5109472;28;20024;-61
2021/01/10 11:02:51;;;;;;;4.70;2.88;;;4.60;82.90;;;;;;5113652;28;20058;-60
2021/01/10 11:05:17;;;;;;;7.60;2.83;;;4.60;83.00;;;;;;5113767;28;20064;-61
2021/01/10 11:07:43;;;;;;;6.60;3.17;;;4.60;83.10;;;;;;5113791;28;20390;-61
2021/01/10 11:10:09;;;;;;;3.83;1.77;;;4.60;83.20;;;;;;5113665;28;20020;-60
2021/01/10 11:12:35;;;;;;;2.95;2.08;;;4.60;83.30;;;;;;5112967;28;20470;-61
2021/01/10 11:15:02;;;;;;;11.27;3.15;;;4.70;83.40;;;;;;5105618;28;20067;-60
2021/01/10 11:17:27;;;;;;;8.98;3.33;;;4.60;83.50;;;;;;5111548;28;20027;-61
2021/01/10 11:19:53;;;;;;;7.18;2.97;;;4.60;83.60;;;;;;5111879;28;20419;-60
2021/01/10 11:22:19;;;;;;;7.45;3.60;;;4.70;83.60;;;;;;5113742;28;20490;-61
2021/01/10 11:24:44;;;;;;;2.80;2.00;;;4.70;83.60;;;;;;5111469;28;20475;-61
2021/01/10 11:27:10;;;;;;;5.93;3.33;;;4.70;83.70;;;;;;5111323;28;20395;-61
2021/01/10 11:29:36;;;;;;;9.88;3.30;;;4.70;83.70;;;;;;5108169;28;20059;-62
2021/01/10 11:32:03;;;;;;;10.07;4.03;;;4.80;83.90;;;;;;5109913;28;20027;-62
2021/01/10 11:34:29;;;;;;;4.65;2.60;;;4.80;84.00;;;;;;5112886;28;20471;-61
2021/01/10 11:36:55;;;;;;;10.07;3.38;;;4.70;84.00;;;;;;5108719;28;20027;-60
2021/01/10 11:39:23;;;;;;;7.10;3.53;;;4.80;84.20;;;;;;5109252;28;20036;-61
2021/01/10 11:41:51;;;;;;;10.10;4.22;;;4.70;84.30;;;;;;5109043;28;20483;-61
2021/01/10 11:44:19;;;;;;;11.80;4.43;;;4.80;84.50;;;;;;5111509;28;20039;-60
2021/01/10 11:46:49;;;;;;;8.23;4.20;;;4.80;84.50;;;;;;5109297;28;20027;-61
2021/01/10 11:49:16;;;;;;;2.45;1.95;;;4.80;84.60;;;;;;5111220;27;20027;-61
2021/01/10 11:51:42;;;;;;;11.00;4.78;;;4.80;84.70;;;;;;5111075;28;20045;-60
2021/01/10 11:54:12;;;;;;;6.95;3.75;;;4.80;84.80;;;;;;5110768;28;20489;-61
2021/01/10 11:56:39;;;;;;;11.32;4.57;;;4.80;84.90;;;;;;5111756;28;20031;-60
2021/01/10 11:59:05;;;;;;;9.18;4.15;;;4.80;84.90;;;;;;5106040;28;20052;-61
2021/01/10 12:01:35;;;;;;;3.15;2.20;;;4.90;85.00;;;;;;5108454;28;20096;-60
2021/01/10 12:04:03;;;;;;;7.15;4.43;;;4.90;85.00;;;;;;5110209;28;20031;-61
2021/01/10 12:06:29;;;;;;;10.48;4.22;;;4.90;85.00;;;;;;5111047;28;20077;-60
2021/01/10 12:08:55;;;;;;;16.33;5.97;;;4.90;85.00;;;;;;5111071;28;20051;-61
2021/01/10 12:11:21;;;;;;;7.32;3.90;;;4.90;85.00;;;;;;5111762;28;20040;-63
2021/01/10 12:13:47;;;;;;;10.98;5.20;;;4.90;85.10;;;;;;5110230;28;20027;-61
2021/01/10 12:16:14;;;;;;;10.05;5.72;;;5.00;85.30;;;;;;5110005;28;20032;-61
2021/01/10 12:18:40;;;;;;;11.48;6.30;;;5.00;85.30;;;;;;5111773;28;20034;-61
2021/01/10 12:21:08;;;;;;;12.98;5.57;;;5.00;85.30;;;;;;5108587;28;20042;-62
2021/01/10 12:23:34;;;;;;;11.52;5.53;;;5.00;85.40;;;;;;5110624;28;20114;-61
2021/01/10 12:26:00;;;;;;;12.90;5.60;;;5.00;85.50;;;;;;5107489;28;20028;-61
2021/01/10 12:28:26;;;;;;;10.60;5.78;;;5.00;85.70;;;;;;5109137;28;20552;-61
2021/01/10 12:30:51;;;;;;;16.27;8.63;;;5.00;85.80;;;;;;5108443;28;20054;-61
2021/01/10 12:33:17;;;;;;;18.80;7.43;;;5.00;85.90;;;;;;5110770;28;20501;-61
2021/01/10 12:35:42;;;;;;;13.00;6.95;;;5.10;86.00;;;;;;5110223;28;20383;-61
2021/01/10 12:38:08;;;;;;;16.83;7.60;;;5.10;86.10;;;;;;5108316;28;20023;-61
2021/01/10 12:40:34;;;;;;;14.88;7.82;;;5.00;86.20;;;;;;5111358;28;20027;-61
2021/01/10 12:42:59;;;;;;;18.42;7.55;;;5.10;86.40;;;;;;5108182;28;20030;-61
2021/01/10 12:45:25;;;;;;;12.27;5.97;;;5.10;86.50;;;;;;5111042;28;20444;-61
2021/01/10 12:47:51;;;;;;;19.80;7.47;;;5.10;86.70;;;;;;5106597;28;20024;-61
2021/01/10 12:50:16;;;;;;;15.20;7.63;;;5.10;86.80;;;;;;5092410;28;20471;-61
2021/01/10 12:52:43;;;;;;;12.50;6.88;;;5.10;86.80;;;;;;5092960;28;20027;-61
2021/01/10 12:55:10;;;;;;;16.73;7.65;;;5.10;86.90;;;;;;5092996;28;20376;-61
2021/01/10 12:57:36;;;;;;;16.92;6.50;;;5.20;87.00;;;;;;5092807;28;20060;-61
2021/01/10 13:00:12;;;;;;;13.60;6.90;;;5.20;87.00;;;;;;5106122;28;20542;-61
2021/01/10 13:02:38;;;;;;;13.68;6.93;;;5.20;87.10;;;;;;5092938;28;20379;-61